createdAt,value
2019-03-15T00:01:28.207Z,95654.72
2019-03-15T00:06:34.196Z,95620.35
2019-03-15T00:11:39.964Z,95597.92
2019-03-15T00:16:45.836Z,95483.52
2019-03-15T00:21:51.724Z,95447.33
2019-03-15T00:26:57.724Z,95382.36
2019-03-15T00:32:04.683Z,95350.64
2019-03-15T00:37:10.744Z,95328.75
2019-03-15T00:42:17.969Z,95278.83
2019-03-15T00:47:23.921Z,95242.61
2019-03-15T00:52:29.784Z,95199.19
2019-03-15T00:57:35.548Z,95178.05
2019-03-15T01:02:44.094Z,95117.08
2019-03-15T01:07:49.881Z,95061.14
2019-03-15T01:12:55.735Z,95021.66
2019-03-15T01:18:01.495Z,95058.18
2019-03-15T01:23:07.386Z,95039.11
2019-03-15T01:28:13.338Z,95072.10
2019-03-15T01:33:19.417Z,95075.48
2019-03-15T01:38:26.207Z,95052.17
2019-03-15T01:43:32.083Z,95066.20
2019-03-15T01:48:38.874Z,95056.91
2019-03-15T01:53:44.749Z,95067.65
2019-03-15T01:58:50.618Z,95095.58
2019-03-15T02:03:56.480Z,95137.63
2019-03-15T02:09:02.354Z,95175.92
2019-03-15T02:14:09.262Z,95237.24
2019-03-15T02:19:15.130Z,95262.30
2019-03-15T02:24:20.893Z,95312.02
2019-03-15T02:29:26.773Z,95390.84
2019-03-15T02:34:32.839Z,95582.61
2019-03-15T02:39:38.714Z,95583.41
2019-03-15T02:44:44.503Z,95593.47
2019-03-15T02:49:50.359Z,95611.45
2019-03-15T02:54:56.124Z,95643.73
2019-03-15T03:00:02.039Z,95664.34
2019-03-15T03:05:10.425Z,95655.89
2019-03-15T03:10:16.302Z,95659.30
2019-03-15T03:15:22.174Z,95667.52
2019-03-15T03:20:28.220Z,95702.98
2019-03-15T03:25:34.114Z,95733.14
2019-03-15T03:30:40.204Z,95763.31
2019-03-15T03:35:45.960Z,95802.73
2019-03-15T03:40:52.036Z,95849.32
2019-03-15T03:45:57.863Z,95881.12
2019-03-15T03:51:03.780Z,95933.77
2019-03-15T03:56:09.556Z,95985.41
2019-03-15T04:01:15.624Z,96030.64
2019-03-15T04:06:21.494Z,96059.46
2019-03-15T04:11:27.373Z,96075.08
2019-03-15T04:16:33.246Z,96110.44
2019-03-15T04:21:39.118Z,96110.94
2019-03-15T04:26:44.990Z,96084.02
2019-03-15T04:31:51.019Z,96070.22
2019-03-15T04:36:56.921Z,96031.50
2019-03-15T04:42:02.893Z,96003.61
2019-03-15T04:47:08.769Z,95943.90
2019-03-15T04:52:14.950Z,95908.43
2019-03-15T04:57:20.778Z,95855.30
2019-03-15T05:02:26.684Z,95832.77
2019-03-15T05:07:33.635Z,95814.23
2019-03-15T05:12:39.660Z,95787.59
2019-03-15T05:17:46.098Z,95776.22
2019-03-15T05:22:52.022Z,95776.73
2019-03-15T05:27:57.890Z,95780.14
2019-03-15T05:33:03.863Z,95732.27
2019-03-15T05:38:09.581Z,95729.61
2019-03-15T05:43:15.641Z,95728.27
2019-03-15T05:48:21.492Z,95786.23
2019-03-15T05:53:27.454Z,95805.80
2019-03-15T05:58:33.481Z,95830.91
2019-03-15T06:03:48.314Z,95885.34
2019-03-15T06:08:46.866Z,95915.86
2019-03-15T06:13:52.783Z,95949.72
2019-03-15T06:18:58.516Z,95991.44
2019-03-15T06:24:04.418Z,95973.14
2019-03-15T06:29:10.406Z,96078.33
2019-03-15T06:34:16.275Z,96105.08
2019-03-15T06:39:22.239Z,96160.82
2019-03-15T06:44:28.173Z,96195.16
2019-03-15T06:49:34.205Z,96229.91
2019-03-15T06:54:40.055Z,96284.09
2019-03-15T06:59:46.423Z,96320.86
2019-03-15T07:04:52.208Z,96359.55
2019-03-15T07:09:58.079Z,96393.14
2019-03-15T07:15:08.341Z,96462.83
2019-03-15T07:20:16.112Z,96482.73
2019-03-15T07:25:21.986Z,96499.31
2019-03-15T07:30:27.809Z,96548.02
2019-03-15T07:35:33.739Z,96562.02
2019-03-15T07:40:39.659Z,96552.53
2019-03-15T07:45:45.632Z,96553.26
2019-03-15T07:50:51.606Z,96586.33
2019-03-15T07:55:57.427Z,96588.38
2019-03-15T08:01:03.346Z,96576.73
2019-03-15T08:06:10.115Z,96588.97
2019-03-15T08:11:15.850Z,96607.98
2019-03-15T08:16:21.781Z,96624.10
2019-03-15T08:21:27.605Z,96611.66
2019-03-15T08:26:33.547Z,96625.13
2019-03-15T08:31:39.397Z,96664.81
2019-03-15T08:36:45.224Z,96700.53
2019-03-15T08:41:51.040Z,96750.25
2019-03-15T08:46:56.898Z,96776.47
2019-03-15T08:52:04.091Z,96825.64
2019-03-15T08:57:10.174Z,96859.30
2019-03-15T09:02:16.359Z,96897.42
2019-03-15T09:07:22.233Z,97010.84
2019-03-15T09:12:28.139Z,97060.22
2019-03-15T09:17:34.074Z,97083.49
2019-03-15T09:22:40.040Z,97166.36
2019-03-15T09:27:46.084Z,97205.41
2019-03-15T09:32:51.942Z,97233.39
2019-03-15T09:37:57.753Z,97191.89
2019-03-15T09:43:04.138Z,97191.89
2019-03-15T09:48:10.059Z,97191.36
2019-03-15T09:53:16.814Z,97120.58
2019-03-15T09:58:22.613Z,97120.58
2019-03-15T10:03:28.571Z,97129.39
2019-03-15T10:08:35.479Z,97136.05
2019-03-15T10:13:41.423Z,97121.89
2019-03-15T10:18:50.437Z,97102.02
2019-03-15T10:23:54.926Z,97125.06
2019-03-15T10:29:14.224Z,97125.06
2019-03-15T10:34:08.394Z,97109.96
2019-03-15T10:39:14.268Z,97101.38
2019-03-15T10:44:20.137Z,97075.70
2019-03-15T10:49:26.006Z,97044.80
2019-03-15T10:54:31.815Z,97027.67
2019-03-15T10:59:37.747Z,97026.08
2019-03-15T11:04:43.531Z,97055.29
2019-03-15T11:09:49.383Z,97087.20
2019-03-15T11:14:55.261Z,97112.45
2019-03-15T11:20:01.127Z,97122.23
2019-03-15T11:25:08.949Z,97148.27
2019-03-15T11:30:15.232Z,97156.51
2019-03-15T11:35:21.740Z,97158.37
2019-03-15T11:40:27.592Z,97167.55
2019-03-15T11:45:33.348Z,97147.59
2019-03-15T11:50:39.319Z,97172.82
2019-03-15T11:55:45.361Z,97233.80
2019-03-15T12:00:51.166Z,97270.70
2019-03-15T12:05:58.671Z,97288.58
2019-03-15T12:11:04.543Z,97324.84
2019-03-15T12:16:10.416Z,97360.02
2019-03-15T12:21:16.187Z,97327.20
2019-03-15T12:26:25.854Z,97333.46
2019-03-15T12:31:37.168Z,97348.87
2019-03-15T12:36:42.232Z,97315.33
2019-03-15T12:41:53.498Z,97316.66
2019-03-15T12:46:58.459Z,97320.11
2019-03-15T12:52:04.231Z,97329.19
2019-03-15T12:57:10.287Z,97310.97
2019-03-15T13:02:20.185Z,97301.56
2019-03-15T13:07:24.894Z,97302.23
2019-03-15T13:12:30.908Z,97283.42
2019-03-15T13:17:36.784Z,97274.88
2019-03-15T13:22:42.756Z,97279.80
2019-03-15T13:27:48.619Z,97262.22
2019-03-15T13:32:54.666Z,97250.66
2019-03-15T13:38:00.530Z,97228.94
2019-03-15T13:43:06.445Z,97248.77
2019-03-15T13:48:12.287Z,97259.08
2019-03-15T13:53:19.918Z,97223.39
2019-03-15T13:58:25.790Z,97230.84
2019-03-15T14:03:31.567Z,97197.41
2019-03-15T14:08:37.433Z,97198.63
2019-03-15T14:13:43.438Z,97205.92
2019-03-15T14:18:49.448Z,97226.80
2019-03-15T14:23:55.320Z,97200.84
2019-03-15T14:29:02.533Z,97157.27
2019-03-15T14:34:08.474Z,97129.16
2019-03-15T14:39:14.315Z,97089.45
2019-03-15T14:44:20.470Z,97069.08
2019-03-15T14:49:26.362Z,97012.26
2019-03-15T14:54:32.292Z,96949.16
2019-03-15T14:59:38.253Z,96871.39
2019-03-15T15:04:44.438Z,96806.38
2019-03-15T15:09:50.309Z,96751.66
2019-03-15T15:14:57.550Z,96708.42
2019-03-15T15:20:03.438Z,96660.73
2019-03-15T15:25:14.961Z,96609.56
2019-03-15T15:30:21.099Z,96494.92
2019-03-15T15:35:27.343Z,96355.23
2019-03-15T15:40:33.233Z,96097.18
2019-03-15T15:45:39.093Z,95875.48
2019-03-15T15:50:44.985Z,95716.41
2019-03-15T15:55:50.846Z,95568.56
2019-03-15T16:00:56.933Z,95377.91
2019-03-15T16:06:03.004Z,95279.77
2019-03-15T16:11:08.855Z,95199.03
2019-03-15T16:16:14.861Z,95167.13
2019-03-15T16:21:20.830Z,95115.70
2019-03-15T16:26:26.883Z,95031.66
2019-03-15T16:31:32.879Z,94974.86
2019-03-15T16:36:38.724Z,94903.09
2019-03-15T16:41:44.629Z,94871.63
2019-03-15T16:46:50.473Z,94898.16
2019-03-15T16:51:56.498Z,94911.02
2019-03-15T16:57:02.446Z,94924.03
2019-03-15T17:02:08.286Z,94926.83
2019-03-15T17:07:14.490Z,94962.96
2019-03-15T17:12:20.519Z,94962.96
2019-03-15T17:17:26.455Z,95000.34
2019-03-15T17:22:32.317Z,95022.62
2019-03-15T17:27:38.492Z,95082.42
2019-03-15T17:32:44.684Z,95127.23
2019-03-15T17:37:50.507Z,95166.02
2019-03-15T17:42:56.322Z,95178.53
2019-03-15T17:48:02.340Z,95275.81
2019-03-15T17:53:09.251Z,95407.02
2019-03-15T17:58:15.167Z,95561.53
2019-03-15T18:03:22.042Z,95606.91
2019-03-15T18:08:27.911Z,95692.20
2019-03-15T18:13:33.866Z,95791.59
2019-03-15T18:18:39.728Z,95788.12
2019-03-15T18:23:45.612Z,95813.05
2019-03-15T18:28:51.431Z,95873.63
2019-03-15T18:33:57.350Z,95923.81
2019-03-15T18:39:04.337Z,95981.67
2019-03-15T18:44:10.259Z,96078.05
2019-03-15T18:49:18.545Z,96136.99
2019-03-15T18:54:23.493Z,96219.00
2019-03-15T18:59:39.459Z,96276.03
2019-03-15T19:04:37.080Z,96380.80
2019-03-15T19:09:42.845Z,96443.39
2019-03-15T19:14:48.757Z,96443.39
2019-03-15T19:19:54.586Z,96491.38
2019-03-15T19:25:00.464Z,96556.05
2019-03-15T19:30:09.332Z,96594.77
2019-03-15T19:35:15.207Z,96638.06
2019-03-15T19:40:21.443Z,96633.51
2019-03-15T19:45:27.569Z,96632.09
2019-03-15T19:50:33.528Z,96632.09
2019-03-15T19:55:39.543Z,96648.05
2019-03-15T20:00:45.449Z,96671.98
2019-03-15T20:05:51.332Z,96723.98
2019-03-15T20:10:57.325Z,96728.26
2019-03-15T20:16:03.383Z,96728.26
2019-03-15T20:21:09.258Z,96726.02
2019-03-15T20:26:15.813Z,96748.73
2019-03-15T20:31:21.759Z,96760.24
2019-03-15T20:36:27.675Z,96822.78
2019-03-15T20:41:33.833Z,96810.51
2019-03-15T20:46:39.733Z,96844.19
2019-03-15T20:51:45.865Z,96863.48
2019-03-15T20:56:51.772Z,96913.81
2019-03-15T21:01:57.862Z,96916.94
2019-03-15T21:07:04.750Z,96968.80
2019-03-15T21:12:10.733Z,96968.80
2019-03-15T21:17:16.597Z,96965.84
2019-03-15T21:22:22.512Z,96984.91
2019-03-15T21:27:28.444Z,96999.97
2019-03-15T21:32:34.538Z,96999.97
2019-03-15T21:37:40.695Z,96968.74
2019-03-15T21:42:46.594Z,96978.98
2019-03-15T21:47:54.185Z,96977.42
2019-03-15T21:52:59.959Z,96976.46
2019-03-15T21:58:06.975Z,96976.46
2019-03-15T22:03:13.747Z,96987.41
2019-03-15T22:08:19.617Z,97080.73
2019-03-15T22:13:25.602Z,97080.73
2019-03-15T22:18:32.570Z,97040.16
2019-03-15T22:23:38.461Z,97047.92
2019-03-15T22:28:44.232Z,97062.12
2019-03-15T22:33:50.319Z,97044.93
2019-03-15T22:38:57.303Z,97075.24
2019-03-15T22:44:03.779Z,97075.24
2019-03-15T22:49:09.908Z,97060.65
2019-03-15T22:54:15.738Z,97060.65
2019-03-15T22:59:21.887Z,97045.73
2019-03-15T23:04:27.783Z,97014.06
2019-03-15T23:09:33.667Z,97014.06
2019-03-15T23:14:39.727Z,97042.70
2019-03-15T23:19:46.728Z,97019.88
2019-03-15T23:24:52.726Z,97028.80
2019-03-15T23:29:58.564Z,97075.11
2019-03-15T23:35:05.054Z,97054.94
2019-03-15T23:40:13.256Z,97112.67
2019-03-15T23:45:19.033Z,97126.69
2019-03-15T23:50:24.916Z,97142.05
2019-03-15T23:55:30.779Z,97169.17
